Time;durP1;ratioP1;P1;durP2;ratioP2;P2;SDS_P1;SDS_P2;PMS_P1;PMS_P2;Temp;Humidity;BMP_temperature;BMP_pressure;BME280_temperature;BME280_humidity;BME280_pressure;Samples;Min_cycle;Max_cycle;Signal;HPM_P1;HPM_P2
2021/12/09 00:00:37;;;;;;;17.45;8.45;;;0.50;99.90;;;;;;5057380;28;20111;-72
2021/12/09 00:03:07;;;;;;;14.43;7.10;;;0.60;99.90;;;;;;5059763;28;20025;-72
2021/12/09 00:05:36;;;;;;;20.20;8.23;;;0.60;99.90;;;;;;5061243;28;20341;-72
2021/12/09 00:08:06;;;;;;;17.83;7.70;;;0.50;99.90;;;;;;5060490;28;20025;-72
2021/12/09 00:10:34;;;;;;;18.08;7.40;;;0.50;99.90;;;;;;5060336;28;20114;-72
2021/12/09 00:13:04;;;;;;;16.50;8.13;;;0.60;99.90;;;;;;5060246;28;20100;-72
2021/12/09 00:15:32;;;;;;;16.85;8.43;;;0.50;99.90;;;;;;5060788;28;20028;-72
2021/12/09 00:18:02;;;;;;;15.23;7.47;;;0.50;99.90;;;;;;5060231;28;20417;-72
2021/12/09 00:20:29;;;;;;;14.68;7.63;;;0.50;99.90;;;;;;5059015;28;20082;-72
2021/12/09 00:22:57;;;;;;;17.92;7.60;;;0.50;99.90;;;;;;5059957;28;20060;-72
2021/12/09 00:25:24;;;;;;;17.33;7.55;;;0.50;99.90;;;;;;5059795;28;20076;-72
2021/12/09 00:27:52;;;;;;;13.32;6.75;;;0.50;99.90;;;;;;5060996;28;20389;-72
2021/12/09 00:30:21;;;;;;;16.98;8.15;;;0.50;99.90;;;;;;5060881;28;20017;-72
2021/12/09 00:32:49;;;;;;;16.75;7.30;;;0.40;99.90;;;;;;5061348;28;20091;-72
2021/12/09 00:35:18;;;;;;;16.60;8.10;;;0.40;99.90;;;;;;5061161;28;20028;-72
2021/12/09 00:37:57;;;;;;;15.90;7.43;;;0.50;99.90;;;;;;5061008;28;20045;-72
2021/12/09 00:40:25;;;;;;;18.30;8.15;;;0.40;99.90;;;;;;5059414;28;20372;-72
2021/12/09 00:42:53;;;;;;;13.90;7.53;;;0.40;99.90;;;;;;5059527;28;20029;-72
2021/12/09 00:45:21;;;;;;;19.63;8.18;;;0.50;99.90;;;;;;5059825;28;20328;-72
2021/12/09 00:47:50;;;;;;;17.67;8.20;;;0.40;99.90;;;;;;5059910;28;20029;-72
2021/12/09 00:50:18;;;;;;;17.58;8.10;;;0.50;99.90;;;;;;5059573;28;20025;-72
2021/12/09 00:52:47;;;;;;;16.23;7.25;;;0.40;99.90;;;;;;5058371;28;20108;-72
2021/12/09 00:55:16;;;;;;;20.92;7.93;;;0.40;99.90;;;;;;5058547;28;20325;-72
2021/12/09 00:57:46;;;;;;;17.42;8.05;;;0.40;99.90;;;;;;5059503;28;20060;-72
2021/12/09 01:00:21;;;;;;;16.52;7.28;;;0.50;99.90;;;;;;5059412;28;20414;-72
2021/12/09 01:02:49;;;;;;;16.80;8.00;;;0.50;99.90;;;;;;5059509;28;20021;-72
2021/12/09 01:05:16;;;;;;;18.40;8.48;;;0.50;99.90;;;;;;5059534;28;20475;-72
2021/12/09 01:07:44;;;;;;;19.73;8.52;;;0.50;99.90;;;;;;5059084;28;20033;-72
2021/12/09 01:10:15;;;;;;;16.95;8.30;;;0.60;99.90;;;;;;5060701;28;20028;-72
2021/12/09 01:12:44;;;;;;;11.18;6.57;;;0.60;99.90;;;;;;5060232;28;20036;-72
2021/12/09 01:15:13;;;;;;;23.17;8.05;;;0.60;99.90;;;;;;5060118;28;20027;-72
2021/12/09 01:17:40;;;;;;;19.73;7.57;;;0.60;99.90;;;;;;5060290;28;20023;-72
2021/12/09 01:20:10;;;;;;;23.33;8.48;;;0.70;99.90;;;;;;5059526;28;20059;-72
2021/12/09 01:22:42;;;;;;;15.52;7.82;;;0.70;99.90;;;;;;5058503;28;20032;-72
2021/12/09 01:25:13;;;;;;;19.92;8.35;;;0.70;99.90;;;;;;5058546;28;20045;-72
2021/12/09 01:27:44;;;;;;;16.98;8.25;;;0.70;99.90;;;;;;5059210;28;20421;-72
2021/12/09 01:30:16;;;;;;;21.85;8.35;;;0.70;99.90;;;;;;5058930;28;20035;-72
2021/12/09 01:32:51;;;;;;;16.73;7.28;;;0.80;99.90;;;;;;5059100;28;20021;-72
2021/12/09 01:35:24;;;;;;;15.18;7.15;;;0.80;99.90;;;;;;5059039;28;20049;-72
2021/12/09 01:37:55;;;;;;;14.48;7.95;;;0.80;99.90;;;;;;5058702;28;20417;-72
2021/12/09 01:40:25;;;;;;;16.48;7.38;;;0.80;99.90;;;;;;5058605;28;20029;-72
2021/12/09 01:42:54;;;;;;;17.25;6.70;;;0.80;99.90;;;;;;5058909;28;20049;-72
2021/12/09 01:45:21;;;;;;;21.58;7.07;;;0.90;99.90;;;;;;5060019;28;20131;-72
2021/12/09 01:47:48;;;;;;;13.25;6.53;;;0.90;99.90;;;;;;5059956;28;20027;-72
2021/12/09 01:50:17;;;;;;;13.23;6.57;;;0.80;99.90;;;;;;5059617;28;20413;-72
2021/12/09 01:52:45;;;;;;;14.90;7.93;;;0.80;99.90;;;;;;5058207;28;20086;-72
2021/12/09 01:55:14;;;;;;;17.20;8.00;;;0.80;99.90;;;;;;5059361;28;20063;-72
2021/12/09 01:57:46;;;;;;;17.08;6.78;;;0.80;99.90;;;;;;5059856;28;20021;-72
2021/12/09 02:00:20;;;;;;;13.43;6.75;;;0.80;99.90;;;;;;5059872;28;20324;-72
2021/12/09 02:02:47;;;;;;;15.43;6.95;;;0.80;99.90;;;;;;5057476;28;20451;-72
2021/12/09 02:05:15;;;;;;;18.35;7.13;;;0.80;99.90;;;;;;5058220;28;20044;-72
2021/12/09 02:07:43;;;;;;;17.52;7.90;;;0.70;99.90;;;;;;5058122;28;20017;-72
2021/12/09 02:10:19;;;;;;;31.65;13.05;;;0.70;99.90;;;;;;5058542;28;20028;-72
2021/12/09 02:12:51;;;;;;;34.63;13.30;;;0.70;99.90;;;;;;5058604;28;20111;-72
2021/12/09 02:15:21;;;;;;;51.15;17.13;;;0.70;99.90;;;;;;5057998;28;20032;-72
2021/12/09 02:17:49;;;;;;;20.67;9.45;;;0.70;99.90;;;;;;5057915;28;20021;-72
2021/12/09 02:20:17;;;;;;;21.45;9.07;;;0.70;99.90;;;;;;5056797;28;20032;-72
2021/12/09 02:22:47;;;;;;;19.48;7.82;;;0.70;99.90;;;;;;5058088;28;20025;-72
2021/12/09 02:25:17;;;;;;;18.02;8.50;;;0.70;99.90;;;;;;5057576;28;20372;-72
2021/12/09 02:27:45;;;;;;;16.95;8.52;;;0.70;99.90;;;;;;5058965;28;20048;-72
2021/12/09 02:30:13;;;;;;;16.48;8.30;;;0.70;99.90;;;;;;5058810;28;20024;-72
2021/12/09 02:32:42;;;;;;;19.10;6.97;;;0.70;99.90;;;;;;5058856;28;20107;-72
2021/12/09 02:35:10;;;;;;;17.67;8.25;;;0.70;99.90;;;;;;5057566;28;20025;-72
2021/12/09 02:37:38;;;;;;;16.83;8.13;;;0.70;99.90;;;;;;5058421;28;20025;-72
2021/12/09 02:40:07;;;;;;;19.05;7.68;;;0.70;99.90;;;;;;5057335;28;20052;-72
2021/12/09 02:42:34;;;;;;;21.02;8.18;;;0.70;99.90;;;;;;5058358;28;20051;-72
2021/12/09 02:45:04;;;;;;;18.38;7.93;;;0.70;99.90;;;;;;5058124;28;20028;-72
2021/12/09 02:47:31;;;;;;;18.65;7.40;;;0.70;99.90;;;;;;5057396;28;20017;-72
2021/12/09 02:49:59;;;;;;;17.02;7.63;;;0.70;99.90;;;;;;5057388;28;20017;-72
2021/12/09 02:52:27;;;;;;;17.98;7.53;;;0.80;99.90;;;;;;5057134;28;20025;-72
2021/12/09 02:54:57;;;;;;;21.00;8.65;;;0.80;99.90;;;;;;5057437;28;20100;-72
2021/12/09 02:57:26;;;;;;;21.25;8.25;;;0.80;99.90;;;;;;5057375;28;20086;-72
2021/12/09 02:59:53;;;;;;;18.50;7.43;;;0.70;99.90;;;;;;5057249;28;20021;-72
2021/12/09 03:02:20;;;;;;;18.55;7.80;;;0.70;99.90;;;;;;5057321;28;20078;-72
2021/12/09 03:04:53;;;;;;;23.15;10.40;;;0.80;99.90;;;;;;5057828;28;20024;-72
2021/12/09 03:07:27;;;;;;;16.83;8.27;;;0.70;99.90;;;;;;5057340;28;20025;-72
2021/12/09 03:10:01;;;;;;;24.42;10.75;;;0.80;99.90;;;;;;5058233;28;20102;-72
2021/12/09 03:12:35;;;;;;;16.40;8.45;;;0.80;99.90;;;;;;5058380;28;20057;-72
2021/12/09 03:15:06;;;;;;;18.58;7.95;;;0.80;99.90;;;;;;5058033;28;20025;-72
2021/12/09 03:17:33;;;;;;;14.65;7.15;;;0.80;99.90;;;;;;5057739;28;20029;-72
2021/12/09 03:20:01;;;;;;;19.33;8.10;;;0.80;99.90;;;;;;5058020;28;20340;-72
2021/12/09 03:22:28;;;;;;;19.02;8.73;;;0.80;99.90;;;;;;5057550;28;20132;-72
2021/12/09 03:24:56;;;;;;;19.75;8.88;;;0.80;99.90;;;;;;5057734;28;20071;-72
2021/12/09 03:27:24;;;;;;;18.27;7.45;;;0.80;99.90;;;;;;5056043;28;20444;-72
2021/12/09 03:29:52;;;;;;;16.77;7.70;;;0.80;99.90;;;;;;5056731;28;20075;-72
2021/12/09 03:32:20;;;;;;;17.65;6.75;;;0.80;99.90;;;;;;5056609;28;20031;-72
2021/12/09 03:34:47;;;;;;;13.50;7.05;;;0.80;99.90;;;;;;5055525;28;20421;-72
2021/12/09 03:37:21;;;;;;;16.33;6.80;;;0.80;99.90;;;;;;5055933;28;20047;-72
2021/12/09 03:39:49;;;;;;;19.58;7.15;;;0.70;99.90;;;;;;5056802;28;20024;-72
2021/12/09 03:42:19;;;;;;;17.80;7.95;;;0.70;99.90;;;;;;5056409;28;20029;-72
2021/12/09 03:44:48;;;;;;;16.50;7.43;;;0.70;99.90;;;;;;5056506;28;20095;-72
2021/12/09 03:47:20;;;;;;;19.95;7.82;;;0.70;99.90;;;;;;5056926;28;20033;-72
2021/12/09 03:49:48;;;;;;;18.20;7.60;;;0.70;99.90;;;;;;5056994;28;20017;-72
2021/12/09 03:52:16;;;;;;;18.00;8.40;;;0.70;99.90;;;;;;5057259;28;20028;-72
2021/12/09 03:54:44;;;;;;;18.88;8.52;;;0.70;99.90;;;;;;5057354;28;20021;-72
2021/12/09 03:57:13;;;;;;;18.05;8.43;;;0.70;99.90;;;;;;5056146;28;20032;-72
2021/12/09 03:59:42;;;;;;;17.25;8.20;;;0.70;99.90;;;;;;5057414;28;20029;-72
2021/12/09 04:02:10;;;;;;;19.60;8.00;;;0.70;99.90;;;;;;5057672;28;20036;-72
2021/12/09 04:04:38;;;;;;;20.98;9.35;;;0.70;99.90;;;;;;5057253;28;20017;-72
2021/12/09 04:07:06;;;;;;;18.88;8.13;;;0.70;99.90;;;;;;5057560;28;20013;-72
2021/12/09 04:09:34;;;;;;;17.25;8.88;;;0.70;99.90;;;;;;5056978;28;20024;-72
2021/12/09 04:12:01;;;;;;;22.92;8.57;;;0.70;99.90;;;;;;5056149;28;20112;-72
2021/12/09 04:14:28;;;;;;;15.25;7.80;;;0.70;99.90;;;;;;5056180;28;20024;-72
2021/12/09 04:16:56;;;;;;;18.67;6.70;;;0.70;99.90;;;;;;5056437;28;20021;-72
2021/12/09 04:19:24;;;;;;;20.63;7.40;;;0.70;99.90;;;;;;5055187;28;20021;-72
2021/12/09 04:21:52;;;;;;;20.63;7.97;;;0.70;99.90;;;;;;5056266;28;20083;-72
2021/12/09 04:24:20;;;;;;;15.10;7.53;;;0.70;99.90;;;;;;5055825;28;20048;-73
2021/12/09 04:26:50;;;;;;;17.20;7.78;;;0.60;99.90;;;;;;5056593;28;20031;-72
2021/12/09 04:29:18;;;;;;;20.85;7.57;;;0.60;99.90;;;;;;5055141;28;20363;-72
2021/12/09 04:31:51;;;;;;;20.02;8.75;;;0.60;99.90;;;;;;5056622;28;20107;-72
2021/12/09 04:34:20;;;;;;;17.35;8.50;;;0.60;99.90;;;;;;5057484;28;20025;-72
2021/12/09 04:36:48;;;;;;;19.63;8.32;;;0.60;99.90;;;;;;5057213;28;20029;-72
2021/12/09 04:39:16;;;;;;;18.65;8.43;;;0.60;99.90;;;;;;5057040;28;20430;-73
2021/12/09 04:41:43;;;;;;;22.10;9.63;;;0.60;99.90;;;;;;5056490;28;20029;-72
2021/12/09 04:44:11;;;;;;;20.88;9.23;;;0.70;99.90;;;;;;5057088;28;20313;-72
2021/12/09 04:46:39;;;;;;;28.88;10.70;;;0.70;99.90;;;;;;5055697;28;20021;-72
2021/12/09 04:49:06;;;;;;;23.73;10.27;;;0.70;99.90;;;;;;5060151;28;20484;-72
2021/12/09 04:51:35;;;;;;;27.02;9.93;;;0.80;99.90;;;;;;5076881;28;20117;-72
2021/12/09 04:54:05;;;;;;;23.33;10.35;;;0.80;99.90;;;;;;5058407;28;20017;-72
2021/12/09 04:56:34;;;;;;;17.52;9.48;;;0.80;99.90;;;;;;5075168;28;20027;-72
2021/12/09 04:59:02;;;;;;;20.58;9.07;;;0.90;99.90;;;;;;5058382;28;20017;-72
2021/12/09 05:01:29;;;;;;;20.27;8.52;;;0.90;99.90;;;;;;5059546;28;20409;-72
2021/12/09 05:03:57;;;;;;;18.98;9.20;;;0.90;99.90;;;;;;5060167;28;20021;-72
2021/12/09 05:06:24;;;;;;;19.58;8.70;;;0.90;99.90;;;;;;5059334;28;20028;-72
2021/12/09 05:08:52;;;;;;;19.35;7.90;;;0.90;99.90;;;;;;5059837;28;20313;-72
2021/12/09 05:11:48;;;;;;;19.55;8.43;;;0.90;99.90;;;;;;5059246;28;20025;-72
2021/12/09 05:14:20;;;;;;;18.17;8.15;;;0.80;99.90;;;;;;5059286;28;20025;-73
2021/12/09 05:16:52;;;;;;;26.75;9.82;;;0.80;99.90;;;;;;5060071;28;20025;-72
2021/12/09 05:19:21;;;;;;;18.42;8.45;;;0.80;99.90;;;;;;5059971;28;20084;-72
2021/12/09 05:21:49;;;;;;;23.88;10.10;;;0.80;99.90;;;;;;5060078;28;20025;-72
2021/12/09 05:24:16;;;;;;;30.88;11.07;;;0.80;99.90;;;;;;5059835;28;20055;-73
2021/12/09 05:26:52;;;;;;;27.58;10.05;;;0.80;99.90;;;;;;5075535;28;20025;-72
2021/12/09 05:29:27;;;;;;;23.40;9.10;;;0.80;99.90;;;;;;5060096;28;20066;-72
2021/12/09 05:32:08;;;;;;;23.40;10.07;;;0.80;99.90;;;;;;5059761;28;20096;-72
2021/12/09 05:34:48;;;;;;;20.13;8.73;;;0.90;99.90;;;;;;5059778;28;20016;-72
2021/12/09 05:37:21;;;;;;;21.17;9.07;;;0.90;99.90;;;;;;5058934;28;20025;-72
2021/12/09 05:39:50;;;;;;;19.92;9.10;;;0.90;99.90;;;;;;5058755;28;20088;-72
2021/12/09 05:42:20;;;;;;;19.30;9.23;;;0.90;99.90;;;;;;5058537;28;20100;-72
2021/12/09 05:44:49;;;;;;;17.83;7.97;;;0.90;99.90;;;;;;5058740;28;20021;-72
2021/12/09 05:47:16;;;;;;;18.50;8.57;;;0.90;99.90;;;;;;5058542;28;20032;-72
2021/12/09 05:49:47;;;;;;;22.13;10.27;;;0.90;99.90;;;;;;5058515;28;20108;-72
2021/12/09 05:52:15;;;;;;;23.77;9.63;;;0.90;99.90;;;;;;5058372;28;20095;-72
2021/12/09 05:54:43;;;;;;;21.48;8.77;;;0.90;99.90;;;;;;5059182;28;20040;-72
2021/12/09 05:57:11;;;;;;;20.45;9.63;;;0.90;99.90;;;;;;5057250;28;20032;-72
2021/12/09 05:59:41;;;;;;;25.45;8.23;;;0.90;99.90;;;;;;5058404;28;20031;-72
2021/12/09 06:02:10;;;;;;;20.85;8.88;;;0.90;99.90;;;;;;5059116;28;20524;-72
2021/12/09 06:04:38;;;;;;;23.67;9.77;;;0.90;99.90;;;;;;5058040;28;20029;-72
2021/12/09 06:07:05;;;;;;;20.25;8.98;;;0.90;99.90;;;;;;5057933;28;20017;-72
2021/12/09 06:09:33;;;;;;;20.58;8.25;;;0.80;99.90;;;;;;5059619;28;20079;-72
2021/12/09 06:12:02;;;;;;;21.15;9.68;;;0.80;99.90;;;;;;5059267;28;20025;-72
2021/12/09 06:14:29;;;;;;;19.45;9.60;;;0.80;99.90;;;;;;5058950;28;20373;-72
2021/12/09 06:16:56;;;;;;;22.67;9.80;;;0.70;99.90;;;;;;5058986;28;20021;-72
2021/12/09 06:19:24;;;;;;;24.65;9.60;;;0.70;99.90;;;;;;5058402;28;20131;-72
2021/12/09 06:21:51;;;;;;;21.67;8.93;;;0.70;99.90;;;;;;5058230;28;20024;-72
2021/12/09 06:24:18;;;;;;;24.10;11.70;;;0.60;99.90;;;;;;5057591;28;20421;-73
2021/12/09 06:26:46;;;;;;;24.33;10.32;;;0.60;99.90;;;;;;5056731;28;20139;-72
2021/12/09 06:29:14;;;;;;;19.15;9.25;;;0.60;99.90;;;;;;5073401;28;20032;-72
2021/12/09 06:31:42;;;;;;;23.20;9.65;;;0.50;99.90;;;;;;5057640;28;20025;-72
2021/12/09 06:34:12;;;;;;;24.48;9.88;;;0.50;99.90;;;;;;5057701;28;20048;-72
2021/12/09 06:36:42;;;;;;;17.67;8.10;;;0.40;99.90;;;;;;5057858;28;20048;-72
2021/12/09 06:39:12;;;;;;;20.85;8.40;;;0.40;99.90;;;;;;5057544;28;20104;-72
2021/12/09 06:41:40;;;;;;;19.75;8.68;;;0.30;99.90;;;;;;5058016;28;20025;-72
2021/12/09 06:44:08;;;;;;;25.40;9.25;;;0.30;99.90;;;;;;5058626;28;20040;-72
2021/12/09 06:46:35;;;;;;;23.08;10.32;;;0.30;99.90;;;;;;5058407;28;20048;-72
2021/12/09 06:49:03;;;;;;;19.10;8.27;;;0.20;99.90;;;;;;5058329;28;20096;-72
2021/12/09 06:51:31;;;;;;;22.75;9.18;;;0.20;99.90;;;;;;5058055;28;20016;-71
2021/12/09 06:53:58;;;;;;;23.20;9.10;;;0.10;99.90;;;;;;5058400;28;20019;-71
2021/12/09 06:56:35;;;;;;;20.33;8.45;;;0.10;99.90;;;;;;5058261;28;20017;-72
2021/12/09 06:59:03;;;;;;;19.13;7.93;;;0.10;99.90;;;;;;5058186;28;20302;-72
2021/12/09 07:01:31;;;;;;;25.33;9.38;;;0.00;99.90;;;;;;5057817;28;20025;-72
2021/12/09 07:03:59;;;;;;;25.35;7.97;;;-0.10;99.90;;;;;;5057357;28;20032;-69
2021/12/09 07:06:26;;;;;;;17.92;8.52;;;-0.10;99.90;;;;;;5057091;28;20019;-71
2021/12/09 07:08:59;;;;;;;22.48;8.90;;;-0.10;99.90;;;;;;5057185;28;20380;-72
2021/12/09 07:11:29;;;;;;;21.50;8.27;;;-0.20;99.90;;;;;;5056842;28;20031;-71
2021/12/09 07:13:57;;;;;;;24.40;8.30;;;-0.20;99.90;;;;;;5057029;28;20033;-71
2021/12/09 07:16:25;;;;;;;21.38;8.93;;;-0.20;99.90;;;;;;5055856;28;20021;-69
2021/12/09 07:18:53;;;;;;;29.55;9.90;;;-0.20;99.90;;;;;;5056947;28;20028;-71
2021/12/09 07:21:21;;;;;;;22.00;7.85;;;-0.20;99.90;;;;;;5055781;28;20021;-71
2021/12/09 07:23:49;;;;;;;23.13;8.23;;;-0.30;99.90;;;;;;5057177;28;20025;-71
2021/12/09 07:26:16;;;;;;;21.92;9.00;;;-0.30;99.90;;;;;;5057536;28;20052;-71
2021/12/09 07:28:44;;;;;;;27.30;9.32;;;-0.30;99.90;;;;;;5057764;28;20029;-69
2021/12/09 07:31:11;;;;;;;22.27;8.35;;;-0.30;99.90;;;;;;5057609;28;20017;-68
2021/12/09 07:33:39;;;;;;;24.88;9.30;;;-0.30;99.90;;;;;;5057772;28;20025;-67
2021/12/09 07:36:06;;;;;;;19.02;9.18;;;-0.30;99.90;;;;;;5057581;28;20108;-68
2021/12/09 07:38:33;;;;;;;29.08;9.25;;;-0.30;99.90;;;;;;5058008;28;20021;-70
2021/12/09 07:41:01;;;;;;;25.25;9.07;;;-0.30;99.90;;;;;;5057972;28;20024;-68
2021/12/09 07:43:29;;;;;;;30.92;8.80;;;-0.40;99.90;;;;;;5057474;28;20021;-67
2021/12/09 07:45:58;;;;;;;23.35;10.05;;;-0.40;99.90;;;;;;5056454;28;20359;-73
2021/12/09 07:48:26;;;;;;;22.85;9.15;;;-0.40;99.90;;;;;;5056521;28;20487;-69
2021/12/09 07:50:53;;;;;;;20.42;9.18;;;-0.40;99.90;;;;;;5056936;28;20043;-67
2021/12/09 07:53:22;;;;;;;29.25;8.57;;;-0.30;99.90;;;;;;5055434;28;20425;-68
2021/12/09 07:55:54;;;;;;;22.38;8.55;;;-0.30;99.90;;;;;;5057155;28;20029;-68
2021/12/09 07:58:23;;;;;;;24.73;8.63;;;-0.40;99.90;;;;;;5056379;28;20025;-67
2021/12/09 08:00:51;;;;;;;19.75;8.05;;;-0.40;99.90;;;;;;5055263;28;20029;-67
2021/12/09 08:03:19;;;;;;;107.82;25.20;;;-0.30;99.90;;;;;;5056398;28;20029;-66
2021/12/09 08:05:47;;;;;;;43.50;14.43;;;-0.30;99.90;;;;;;5056859;28;20147;-67
2021/12/09 08:08:15;;;;;;;59.08;16.88;;;-0.30;99.90;;;;;;5057164;28;20025;-67
2021/12/09 08:10:43;;;;;;;27.30;8.95;;;-0.30;99.90;;;;;;5057482;28;20017;-67
2021/12/09 08:13:13;;;;;;;22.77;7.65;;;-0.30;99.90;;;;;;5057394;28;20021;-67
2021/12/09 08:15:50;;;;;;;19.30;8.80;;;-0.30;99.90;;;;;;5057432;28;20049;-67
2021/12/09 08:20:51;;;;;;;19.23;8.13;;;-0.20;99.90;;;;;;5057143;28;20028;-67
2021/12/09 08:23:19;;;;;;;25.55;8.52;;;-0.20;99.90;;;;;;5059365;28;20049;-67
2021/12/09 08:25:48;;;;;;;26.13;8.68;;;-0.20;99.90;;;;;;5060962;28;20052;-67
2021/12/09 08:28:16;;;;;;;23.67;9.68;;;-0.10;99.90;;;;;;5059993;28;20021;-69
2021/12/09 08:30:44;;;;;;;29.48;13.05;;;-0.10;99.90;;;;;;5060375;28;20056;-68
2021/12/09 08:33:12;;;;;;;24.30;9.98;;;0.00;99.90;;;;;;5060165;28;20025;-66
2021/12/09 08:35:40;;;;;;;24.98;10.18;;;0.00;99.90;;;;;;5060523;28;20051;-68
2021/12/09 08:38:08;;;;;;;30.25;14.32;;;0.10;99.90;;;;;;5059923;28;20040;-68
2021/12/09 08:40:37;;;;;;;30.23;11.98;;;0.10;99.90;;;;;;5060235;28;20363;-69
2021/12/09 08:43:05;;;;;;;30.33;12.40;;;0.20;99.90;;;;;;5059966;28;20025;-66
2021/12/09 08:45:33;;;;;;;33.75;13.77;;;0.30;99.90;;;;;;5059829;28;20324;-67
2021/12/09 08:48:00;;;;;;;34.55;15.70;;;0.40;99.90;;;;;;5059843;28;20518;-67
2021/12/09 08:50:33;;;;;;;58.28;30.08;;;0.40;99.90;;;;;;5060963;28;20028;-67
2021/12/09 08:53:10;;;;;;;46.15;20.42;;;0.50;99.90;;;;;;5060578;28;20021;-66
2021/12/09 08:55:39;;;;;;;29.45;12.57;;;0.60;99.90;;;;;;5061064;28;20020;-67
2021/12/09 08:58:07;;;;;;;25.20;11.70;;;0.60;99.90;;;;;;5060782;28;20048;-66
2021/12/09 09:00:35;;;;;;;19.95;9.00;;;0.70;99.90;;;;;;5060764;28;20021;-67
2021/12/09 09:03:04;;;;;;;20.80;8.30;;;0.70;99.90;;;;;;5059395;28;20057;-66
2021/12/09 09:05:35;;;;;;;15.45;7.13;;;0.70;99.90;;;;;;5059309;28;20021;-66
2021/12/09 09:08:05;;;;;;;18.83;8.82;;;0.80;99.90;;;;;;5060291;28;20013;-66
2021/12/09 09:10:35;;;;;;;23.92;7.97;;;0.80;99.90;;;;;;5060092;28;20028;-66
2021/12/09 09:13:03;;;;;;;20.33;8.27;;;0.80;99.90;;;;;;5059501;28;20079;-66
2021/12/09 09:15:31;;;;;;;16.95;7.43;;;0.70;99.90;;;;;;5058129;28;20075;-67
2021/12/09 09:18:00;;;;;;;17.30;8.05;;;0.70;99.90;;;;;;5059275;28;20345;-66
2021/12/09 09:20:30;;;;;;;14.88;7.90;;;0.70;99.90;;;;;;5059165;28;20020;-66
2021/12/09 09:23:01;;;;;;;18.40;8.77;;;0.70;99.90;;;;;;5058947;28;20081;-66
2021/12/09 09:25:29;;;;;;;20.15;7.78;;;0.70;99.90;;;;;;5057679;28;20079;-66
2021/12/09 09:27:59;;;;;;;21.40;8.07;;;0.70;99.90;;;;;;5059044;28;20033;-66
2021/12/09 09:30:37;;;;;;;19.33;8.43;;;0.80;99.90;;;;;;5059488;28;20049;-67
2021/12/09 09:33:08;;;;;;;20.10;9.05;;;0.80;99.90;;;;;;5059351;28;20059;-67
2021/12/09 09:35:37;;;;;;;18.35;8.52;;;1.00;99.90;;;;;;5057682;28;20116;-67
2021/12/09 09:38:06;;;;;;;25.08;9.13;;;1.10;99.90;;;;;;5059979;28;20053;-67
2021/12/09 09:41:16;;;;;;;18.15;7.90;;;1.20;99.90;;;;;;5060275;28;20033;-67
2021/12/09 09:46:25;;;;;;;17.23;8.20;;;1.50;99.90;;;;;;5059834;28;20056;-67
2021/12/09 09:48:53;;;;;;;18.47;7.40;;;1.60;99.90;;;;;;5059799;28;20025;-67
2021/12/09 09:51:23;;;;;;;17.02;7.43;;;1.70;99.90;;;;;;5059616;28;20025;-67
2021/12/09 09:53:51;;;;;;;15.55;7.55;;;1.80;99.90;;;;;;5058464;28;20017;-67
2021/12/09 09:56:22;;;;;;;20.70;7.75;;;1.90;99.90;;;;;;5058075;28;20104;-67
2021/12/09 09:58:57;;;;;;;21.55;8.25;;;2.00;99.90;;;;;;5058926;28;20096;-68
2021/12/09 10:01:28;;;;;;;17.48;8.07;;;2.10;99.90;;;;;;5058421;28;20021;-67
2021/12/09 10:04:10;;;;;;;17.25;8.25;;;2.20;99.90;;;;;;5058578;28;20429;-67
2021/12/09 10:06:40;;;;;;;16.17;7.20;;;2.30;99.90;;;;;;5058842;28;20033;-68
2021/12/09 10:09:09;;;;;;;16.92;7.70;;;2.30;99.90;;;;;;5058318;28;20017;-67
2021/12/09 10:11:37;;;;;;;20.55;9.50;;;2.40;99.90;;;;;;5057111;28;20103;-68
2021/12/09 10:14:17;;;;;;;20.25;7.40;;;2.50;99.90;;;;;;5058828;28;20107;-68
2021/12/09 10:16:46;;;;;;;16.90;7.03;;;2.60;99.90;;;;;;5058974;28;20025;-67
2021/12/09 10:19:18;;;;;;;15.40;7.40;;;2.70;99.90;;;;;;5059134;28;20041;-68
2021/12/09 10:21:47;;;;;;;18.15;8.25;;;2.80;99.90;;;;;;5057764;28;20374;-67
2021/12/09 10:24:16;;;;;;;16.27;7.50;;;2.90;99.90;;;;;;5058645;28;20071;-67
2021/12/09 10:26:50;;;;;;;15.10;6.93;;;3.00;99.90;;;;;;5058713;28;20079;-66
2021/12/09 10:29:34;;;;;;;18.95;7.13;;;3.10;99.90;;;;;;5058999;28;20051;-67
2021/12/09 10:32:12;;;;;;;15.93;6.70;;;3.20;99.90;;;;;;5059270;28;20047;-67
2021/12/09 10:34:42;;;;;;;18.35;6.80;;;3.20;99.90;;;;;;5058677;28;20025;-66
2021/12/09 10:37:16;;;;;;;16.92;7.72;;;3.30;99.90;;;;;;5057878;28;20032;-68
2021/12/09 10:40:03;;;;;;;16.70;7.22;;;3.30;99.90;;;;;;5057869;28;20032;-70
2021/12/09 10:42:40;;;;;;;18.35;7.35;;;3.40;99.90;;;;;;5058041;28;20017;-68
2021/12/09 10:45:17;;;;;;;18.25;6.97;;;3.50;99.90;;;;;;5057149;28;20024;-68
2021/12/09 10:48:03;;;;;;;16.73;6.50;;;3.60;99.90;;;;;;5057786;28;20021;-69
2021/12/09 10:50:43;;;;;;;15.00;5.97;;;3.70;99.90;;;;;;5058235;28;20048;-68
2021/12/09 10:55:47;;;;;;;13.13;5.50;;;3.80;99.90;;;;;;5057361;28;20021;-68
2021/12/09 10:58:17;;;;;;;17.83;6.20;;;3.90;99.90;;;;;;5057968;28;20475;-68
2021/12/09 11:00:52;;;;;;;13.88;4.97;;;4.00;99.90;;;;;;5058155;28;20417;-68
2021/12/09 11:03:22;;;;;;;18.75;6.80;;;4.00;99.90;;;;;;5058770;28;20401;-67
2021/12/09 11:06:00;;;;;;;18.55;4.93;;;4.10;99.90;;;;;;5058112;28;20067;-68
2021/12/09 11:08:34;;;;;;;8.57;4.97;;;4.20;99.90;;;;;;5058074;28;20016;-68
2021/12/09 11:11:15;;;;;;;18.15;5.47;;;4.30;99.90;;;;;;5058065;28;20429;-68
2021/12/09 11:13:49;;;;;;;12.77;4.57;;;4.30;99.90;;;;;;5058722;28;20028;-68
2021/12/09 11:16:29;;;;;;;16.13;4.90;;;4.40;99.90;;;;;;5058428;28;20025;-68
2021/12/09 11:19:34;;;;;;;10.45;4.32;;;4.40;99.90;;;;;;5057288;28;20104;-68
2021/12/09 11:22:13;;;;;;;18.02;8.15;;;4.40;99.90;;;;;;5056652;28;20075;-68
2021/12/09 11:24:47;;;;;;;18.23;5.90;;;4.40;99.90;;;;;;5056637;28;20053;-68
2021/12/09 11:27:26;;;;;;;15.02;4.43;;;4.40;99.90;;;;;;5057975;28;20503;-67
2021/12/09 11:30:00;;;;;;;23.98;5.47;;;4.40;99.90;;;;;;5056795;28;20079;-71
2021/12/09 11:32:52;;;;;;;10.93;3.50;;;4.40;99.90;;;;;;5056611;28;20056;-70
2021/12/09 11:35:26;;;;;;;13.38;4.50;;;4.40;99.90;;;;;;5057100;28;20417;-68
2021/12/09 11:38:21;;;;;;;13.57;4.63;;;4.50;99.90;;;;;;5056527;28;20108;-68
2021/12/09 11:40:52;;;;;;;15.23;3.95;;;4.50;99.90;;;;;;5057876;28;20029;-67
2021/12/09 11:43:23;;;;;;;18.10;4.30;;;4.50;99.90;;;;;;5057518;28;20025;-68
2021/12/09 11:45:53;;;;;;;15.63;3.47;;;4.50;99.90;;;;;;5056343;28;20048;-68
2021/12/09 11:48:21;;;;;;;13.57;5.03;;;4.50;99.90;;;;;;5057438;28;20052;-68
2021/12/09 11:50:52;;;;;;;11.43;3.10;;;4.50;99.90;;;;;;5057434;28;20033;-68
2021/12/09 11:53:27;;;;;;;15.05;4.30;;;4.50;99.90;;;;;;5057770;28;20329;-68
2021/12/09 11:56:08;;;;;;;15.93;3.95;;;4.50;99.90;;;;;;5058205;28;20104;-67
2021/12/09 11:58:55;;;;;;;14.65;4.05;;;4.50;99.90;;;;;;5056944;28;20032;-67
2021/12/09 12:07:34;;;;;;;11.05;3.00;;;4.60;99.90;;;;;;5056273;28;20046;-67
2021/12/09 12:27:03;;;;;;;14.18;3.97;;;4.80;99.90;;;;;;5056899;28;20083;-67
2021/12/09 12:30:18;;;;;;;15.25;4.15;;;4.80;99.90;;;;;;5057128;28;20424;-68
2021/12/09 12:33:16;;;;;;;12.15;4.60;;;4.90;99.90;;;;;;5056973;28;20025;-67
2021/12/09 12:36:00;;;;;;;;;;;5.00;99.90;;;;;;5057418;28;20031;-68
2021/12/09 12:41:13;;;;;;;26.83;8.52;;;5.10;99.90;;;;;;5057035;28;20017;-67
2021/12/09 12:44:03;;;;;;;12.63;4.55;;;5.20;99.90;;;;;;5055984;28;20428;-67
2021/12/09 12:46:48;;;;;;;16.73;4.32;;;5.20;99.90;;;;;;5054893;28;20036;-68
2021/12/09 12:49:25;;;;;;;12.48;4.60;;;5.30;99.90;;;;;;5056123;28;20374;-67
2021/12/09 12:52:12;;;;;;;23.95;6.50;;;5.30;99.90;;;;;;5057878;28;20041;-67
2021/12/09 12:54:54;;;;;;;12.55;5.63;;;5.30;99.90;;;;;;5056576;28;20102;-67
2021/12/09 12:57:35;;;;;;;16.13;4.18;;;5.40;99.90;;;;;;5056666;28;20131;-67
2021/12/09 13:00:29;;;;;;;8.18;3.78;;;5.40;99.90;;;;;;5055257;28;20348;-67
2021/12/09 13:03:12;;;;;;;14.02;5.78;;;5.50;99.90;;;;;;5054854;28;20340;-67
2021/12/09 13:05:57;;;;;;;13.07;4.93;;;5.50;99.90;;;;;;5056592;28;20024;-67
2021/12/09 13:08:51;;;;;;;15.30;4.45;;;5.50;99.90;;;;;;5058303;28;20104;-67
2021/12/09 13:11:54;;;;;;;16.42;4.85;;;5.50;99.90;;;;;;5061953;28;20035;-67
2021/12/09 13:14:26;;;;;;;17.75;4.95;;;5.60;99.90;;;;;;5056529;28;20069;-67
2021/12/09 13:17:14;;;;;;;14.70;3.92;;;5.60;99.90;;;;;;5063652;28;20049;-67
2021/12/09 13:20:04;;;;;;;18.55;4.05;;;5.60;99.90;;;;;;5061049;28;20025;-67
2021/12/09 13:22:39;;;;;;;12.90;3.63;;;5.60;99.90;;;;;;5060572;28;20053;-67
2021/12/09 13:25:21;;;;;;;13.37;3.67;;;5.60;99.90;;;;;;5060571;28;20068;-67
2021/12/09 13:27:57;;;;;;;18.33;8.45;;;5.60;99.90;;;;;;5060450;28;20267;-67
2021/12/09 13:30:47;;;;;;;9.40;3.67;;;5.50;99.90;;;;;;5060250;28;20096;-67
2021/12/09 13:33:40;;;;;;;10.90;3.33;;;5.50;99.90;;;;;;5059595;28;20033;-67
2021/12/09 13:36:38;;;;;;;10.65;2.90;;;5.50;99.90;;;;;;5059121;28;20451;-67
2021/12/09 13:50:00;;;;;;;12.10;3.10;;;5.40;99.90;;;;;;5059716;28;20425;-67
2021/12/09 13:55:17;;;;;;;30.52;4.82;;;5.40;99.90;;;;;;5059457;28;20108;-67